NCAR-RAP Real-Time Weather Data

Output produced by METARs form (25 September 2016  17:22 UTC)
found at http://weather.rap.ucar.edu/surface/
 
Conditions at: KALB observed 25 September 2016  16:51 UTC
Temperature: 16.1°C (61°F)
Dewpoint: 3.3°C (38°F) [RH = 42%]
Pressure (altimeter): 30.20 inches Hg (1022.8 mb)
[Sea-level pressure: 1022.8 mb]
Winds: variable direction winds at 3 MPH (3 knots; 1.6 m/s)
Visibility: 10 or more miles (16+ km)
Ceiling: at least 12,000 feet AGL
Clouds: few clouds at 4000 feet AGL
Present Weather: no significant weather observed at this time
KALB 251651Z VRB03KT 10SM FEW040 16/03 A3020 RMK AO2 SLP228 T01610033

Conditions at: KALB observed 25 September 2016  15:51 UTC
Temperature: 15.0°C (59°F)
Dewpoint: 2.8°C (37°F) [RH = 44%]
Pressure (altimeter): 30.22 inches Hg (1023.5 mb)
[Sea-level pressure: 1023.4 mb]
Winds: from the NW (320 degrees) at 9 MPH (8 knots; 4.2 m/s)
Visibility: 10 or more miles (16+ km)
Ceiling: at least 12,000 feet AGL
Clouds: few clouds at 3000 feet AGL
Present Weather: no significant weather observed at this time
KALB 251551Z 32008KT 10SM FEW030 15/03 A3022 RMK AO2 SLP234 T01500028

Conditions at: KALB observed 25 September 2016  14:51 UTC
Temperature: 13.9°C (57°F)
Dewpoint: 2.2°C (36°F) [RH = 45%]
Pressure (altimeter): 30.23 inches Hg (1023.8 mb)
[Sea-level pressure: 1023.7 mb]
Winds: from the NNW (330 degrees) at 6 MPH (5 knots; 2.6 m/s)
Visibility: 10 or more miles (16+ km)
Ceiling: at least 12,000 feet AGL
Clouds: few clouds at 3000 feet AGL
few clouds at 25000 feet AGL
Present Weather: no significant weather observed at this time
KALB 251451Z 33005KT 10SM FEW030 FEW250 14/02 A3023 RMK AO2 SLP237 T01390022 50001

Conditions at: KALB observed 25 September 2016  13:51 UTC
Temperature: 11.7°C (53°F)
Dewpoint: 3.3°C (38°F) [RH = 56%]
Pressure (altimeter): 30.24 inches Hg (1024.1 mb)
[Sea-level pressure: 1024.1 mb]
Winds: from the WNW (290 degrees) at 5 MPH (4 knots; 2.1 m/s)
Visibility: 10 or more miles (16+ km)
Ceiling: at least 12,000 feet AGL
Clouds: few clouds at 2000 feet AGL
Present Weather: no significant weather observed at this time
KALB 251351Z 29004KT 10SM FEW020 12/03 A3024 RMK AO2 SLP241 T01170033

Conditions at: KALB observed 25 September 2016  12:51 UTC
Temperature: 10.0°C (50°F)
Dewpoint: 5.0°C (41°F) [RH = 71%]
Pressure (altimeter): 30.23 inches Hg (1023.8 mb)
[Sea-level pressure: 1023.9 mb]
Winds: from the NNW (330 degrees) at 5 MPH (4 knots; 2.1 m/s)
Visibility: 10 or more miles (16+ km)
Ceiling: at least 12,000 feet AGL
Clouds: sky clear below 12,000 feet AGL
Present Weather: no significant weather observed at this time
KALB 251251Z 33004KT 10SM CLR 10/05 A3023 RMK AO2 SLP239 T01000050

Conditions at: KALB observed 25 September 2016  11:51 UTC
Temperature: 6.7°C (44°F)
Dewpoint: 4.4°C (40°F) [RH = 85%]
Pressure (altimeter): 30.23 inches Hg (1023.8 mb)
[Sea-level pressure: 1023.8 mb]
Winds: calm
Visibility: 10 or more miles (16+ km)
Ceiling: at least 12,000 feet AGL
Clouds: sky clear below 12,000 feet AGL
Present Weather: no significant weather observed at this time
KALB 251151Z 00000KT 10SM CLR 07/04 A3023 RMK AO2 SLP238 T00670044 10078 20033 53009

Conditions at: KALB observed 25 September 2016  10:51 UTC
Temperature: 5.0°C (41°F)
Dewpoint: 3.3°C (38°F) [RH = 89%]
Pressure (altimeter): 30.22 inches Hg (1023.5 mb)
[Sea-level pressure: 1023.3 mb]
Winds: calm
Visibility: 10 or more miles (16+ km)
Ceiling: at least 12,000 feet AGL
Clouds: sky clear below 12,000 feet AGL
Present Weather: no significant weather observed at this time
KALB 251051Z 00000KT 10SM CLR 05/03 A3022 RMK AO2 SLP233 T00500033

Conditions at: KALB observed 25 September 2016  09:51 UTC
Temperature: 5.0°C (41°F)
Dewpoint: 3.3°C (38°F) [RH = 89%]
Pressure (altimeter): 30.21 inches Hg (1023.1 mb)
[Sea-level pressure: 1023.0 mb]
Winds: calm
Visibility: 10 or more miles (16+ km)
Ceiling: at least 12,000 feet AGL
Clouds: sky clear below 12,000 feet AGL
Present Weather: no significant weather observed at this time
KALB 250951Z 00000KT 10SM CLR 05/03 A3021 RMK AO2 SLP230 T00500033

Conditions at: KALB observed 25 September 2016  08:51 UTC
Temperature: 5.6°C (42°F)
Dewpoint: 3.9°C (39°F) [RH = 89%]
Pressure (altimeter): 30.20 inches Hg (1022.8 mb)
[Sea-level pressure: 1022.7 mb]
Winds: calm
Visibility: 10 or more miles (16+ km)
Ceiling: at least 12,000 feet AGL
Clouds: sky clear below 12,000 feet AGL
Present Weather: no significant weather observed at this time
KALB 250851Z 00000KT 10SM CLR 06/04 A3020 RMK AO2 SLP227 T00560039 53006

Conditions at: KALB observed 25 September 2016  07:51 UTC
Temperature: 6.1°C (43°F)
Dewpoint: 3.9°C (39°F) [RH = 86%]
Pressure (altimeter): 30.19 inches Hg (1022.4 mb)
[Sea-level pressure: 1022.2 mb]
Winds: calm
Visibility: 10 or more miles (16+ km)
Ceiling: at least 12,000 feet AGL
Clouds: sky clear below 12,000 feet AGL
Present Weather: no significant weather observed at this time
KALB 250751Z 00000KT 10SM CLR 06/04 A3019 RMK AO2 SLP222 T00610039

Conditions at: KALB observed 25 September 2016  06:51 UTC
Temperature: 6.7°C (44°F)
Dewpoint: 4.4°C (40°F) [RH = 85%]
Pressure (altimeter): 30.18 inches Hg (1022.1 mb)
[Sea-level pressure: 1022.0 mb]
Winds: calm
Visibility: 10 or more miles (16+ km)
Ceiling: at least 12,000 feet AGL
Clouds: sky clear below 12,000 feet AGL
Present Weather: no significant weather observed at this time
KALB 250651Z 00000KT 10SM CLR 07/04 A3018 RMK AO2 SLP220 T00670044

Conditions at: KALB observed 25 September 2016  05:51 UTC
Temperature: 7.2°C (45°F)
Dewpoint: 3.9°C (39°F) [RH = 80%]
Pressure (altimeter): 30.18 inches Hg (1022.1 mb)
[Sea-level pressure: 1022.0 mb]
Winds: from the WNW (290 degrees) at 3 MPH (3 knots; 1.6 m/s)
Visibility: 10 or more miles (16+ km)
Ceiling: at least 12,000 feet AGL
Clouds: sky clear below 12,000 feet AGL
Present Weather: no significant weather observed at this time
KALB 250551Z 29003KT 10SM CLR 07/04 A3018 RMK AO2 SLP220 T00720039 10122 20072 53003